createdAt,value
2022-12-28T00:01:25.254Z,20.13
2022-12-28T00:03:52.710Z,23.33
2022-12-28T00:06:21.428Z,18.57
2022-12-28T00:08:48.291Z,19.07
2022-12-28T00:11:26.512Z,18.97
2022-12-28T00:13:58.579Z,19.70
2022-12-28T00:16:28.496Z,19.60
2022-12-28T00:18:56.266Z,23.25
2022-12-28T00:21:23.137Z,23.33
2022-12-28T00:23:51.198Z,24.13
2022-12-28T00:26:19.519Z,20.27
2022-12-28T00:28:46.519Z,20.07
2022-12-28T00:31:13.962Z,20.90
2022-12-28T00:33:40.406Z,23.17
2022-12-28T00:36:07.893Z,18.63
2022-12-28T00:38:36.034Z,18.67
2022-12-28T00:41:02.693Z,19.43
2022-12-28T00:43:29.034Z,19.33
2022-12-28T00:45:55.447Z,16.37
2022-12-28T00:48:22.499Z,23.00
2022-12-28T00:50:49.296Z,17.53
2022-12-28T00:53:15.855Z,16.30
2022-12-28T00:55:42.909Z,21.67
2022-12-28T00:58:09.443Z,18.67
2022-12-28T01:00:37.369Z,17.73
2022-12-28T01:03:03.911Z,18.13
2022-12-28T01:05:30.431Z,13.97
2022-12-28T01:07:56.911Z,19.80
2022-12-28T01:10:23.235Z,20.70
2022-12-28T01:12:49.620Z,18.83
2022-12-28T01:15:16.138Z,20.50
2022-12-28T01:17:42.639Z,18.30
2022-12-28T01:20:09.370Z,21.67
2022-12-28T01:22:35.934Z,22.00
2022-12-28T01:25:02.650Z,21.07
2022-12-28T01:27:29.219Z,16.87
2022-12-28T01:29:55.693Z,24.10
2022-12-28T01:32:22.062Z,22.47
2022-12-28T01:34:48.432Z,20.27
2022-12-28T01:37:15.005Z,23.83
2022-12-28T01:39:41.412Z,25.90
2022-12-28T01:42:15.784Z,20.70
2022-12-28T01:44:47.694Z,19.50
2022-12-28T01:47:40.489Z,23.53
2022-12-28T01:50:14.252Z,19.73
2022-12-28T01:52:57.628Z,20.67
2022-12-28T01:55:34.848Z,19.07
2022-12-28T01:58:05.161Z,18.67
2022-12-28T02:00:32.082Z,24.42
2022-12-28T02:03:04.789Z,19.53
2022-12-28T02:05:37.960Z,21.93
2022-12-28T02:08:20.352Z,19.77
2022-12-28T02:10:47.571Z,19.83
2022-12-28T02:13:19.477Z,20.17
2022-12-28T02:15:46.988Z,19.37
2022-12-28T02:18:15.660Z,18.07
2022-12-28T02:21:10.068Z,22.30
2022-12-28T02:24:18.054Z,19.50
2022-12-28T02:26:54.121Z,24.70
2022-12-28T02:29:40.048Z,26.27
2022-12-28T02:32:13.530Z,19.63
2022-12-28T02:34:54.817Z,17.13
2022-12-28T02:37:26.551Z,17.67
2022-12-28T02:39:58.739Z,21.10
2022-12-28T02:42:27.089Z,18.97
2022-12-28T02:44:53.446Z,19.87
2022-12-28T02:47:19.866Z,18.57
2022-12-28T02:49:46.434Z,17.83
2022-12-28T02:52:31.092Z,16.73
2022-12-28T02:55:16.274Z,19.63
2022-12-28T02:58:16.575Z,15.87
2022-12-28T03:00:49.489Z,17.35
2022-12-28T03:03:44.845Z,17.63
2022-12-28T03:06:30.050Z,14.40
2022-12-28T03:09:07.444Z,18.27
2022-12-28T03:11:41.106Z,20.93
2022-12-28T03:14:18.776Z,17.50
2022-12-28T03:16:48.805Z,17.00
2022-12-28T03:19:15.467Z,18.08
2022-12-28T03:21:43.187Z,17.17
2022-12-28T03:24:12.113Z,17.40
2022-12-28T03:26:44.270Z,16.93
2022-12-28T03:29:16.395Z,16.53
2022-12-28T03:31:42.981Z,16.57
2022-12-28T03:34:09.621Z,15.70
2022-12-28T03:36:52.937Z,14.47
2022-12-28T03:39:41.087Z,17.93
2022-12-28T03:42:44.483Z,16.43
2022-12-28T03:45:46.457Z,18.70
2022-12-28T03:48:10.061Z,21.30
2022-12-28T03:50:40.352Z,21.23
2022-12-28T03:53:08.356Z,16.40
2022-12-28T03:55:35.265Z,16.93
2022-12-28T03:58:01.655Z,20.43
2022-12-28T04:00:28.001Z,19.37
2022-12-28T04:02:54.466Z,14.50
2022-12-28T04:05:21.036Z,21.13
2022-12-28T04:07:47.621Z,19.03
2022-12-28T04:10:14.180Z,16.33
2022-12-28T04:12:40.540Z,18.33
2022-12-28T04:15:07.644Z,19.00
2022-12-28T04:17:33.988Z,15.60
2022-12-28T04:20:00.422Z,19.67
2022-12-28T04:22:26.872Z,19.70
2022-12-28T04:24:53.440Z,19.67
2022-12-28T04:27:19.828Z,21.67
2022-12-28T04:29:46.205Z,19.63
2022-12-28T04:32:12.541Z,19.10
2022-12-28T04:34:43.120Z,18.07
2022-12-28T04:37:12.981Z,18.60
2022-12-28T04:39:54.841Z,18.77
2022-12-28T04:42:23.399Z,24.23
2022-12-28T04:44:49.962Z,22.63
2022-12-28T04:47:16.422Z,21.50
2022-12-28T04:49:42.833Z,23.27
2022-12-28T04:52:09.254Z,20.03
2022-12-28T04:54:35.544Z,17.60
2022-12-28T04:57:01.973Z,18.83
2022-12-28T04:59:28.343Z,15.47
2022-12-28T05:01:54.895Z,22.30
2022-12-28T05:04:21.478Z,17.60
2022-12-28T05:06:47.901Z,17.57
2022-12-28T05:09:14.226Z,19.47
2022-12-28T05:11:40.712Z,17.93
2022-12-28T05:14:07.040Z,16.67
2022-12-28T05:16:33.685Z,18.23
2022-12-28T05:19:00.281Z,21.10
2022-12-28T05:21:28.366Z,18.83
2022-12-28T05:23:56.024Z,22.73
2022-12-28T05:26:25.656Z,18.67
2022-12-28T05:28:52.529Z,15.13
2022-12-28T05:31:21.431Z,21.33
2022-12-28T05:33:47.887Z,20.50
2022-12-28T05:36:26.397Z,18.70
2022-12-28T05:38:53.544Z,16.67
2022-12-28T05:41:25.376Z,16.83
2022-12-28T05:43:52.337Z,18.00
2022-12-28T05:46:21.928Z,23.00
2022-12-28T05:48:48.687Z,20.60
2022-12-28T05:51:20.116Z,20.10
2022-12-28T05:53:47.822Z,21.63
2022-12-28T05:56:17.174Z,20.13
2022-12-28T05:58:45.115Z,19.73
2022-12-28T06:01:15.520Z,22.07
2022-12-28T06:03:42.689Z,16.30
2022-12-28T06:06:14.590Z,39.80
2022-12-28T06:08:42.175Z,28.10
2022-12-28T06:11:11.412Z,23.63
2022-12-28T06:13:38.731Z,22.50
2022-12-28T06:16:14.050Z,24.30
2022-12-28T06:18:41.079Z,21.97
2022-12-28T06:21:24.235Z,19.60
2022-12-28T06:23:51.649Z,22.33
2022-12-28T06:26:20.786Z,20.43
2022-12-28T06:28:48.268Z,18.50
2022-12-28T06:31:20.300Z,15.33
2022-12-28T06:33:47.974Z,19.60
2022-12-28T06:36:21.008Z,19.60
2022-12-28T06:38:48.946Z,24.17
2022-12-28T06:41:17.415Z,19.33
2022-12-28T06:43:45.325Z,20.07
2022-12-28T06:46:13.550Z,18.90
2022-12-28T06:48:40.293Z,19.13
2022-12-28T06:51:15.603Z,17.77
2022-12-28T06:53:42.555Z,17.47
2022-12-28T06:56:15.054Z,19.90
2022-12-28T06:58:42.412Z,16.00
2022-12-28T07:01:18.035Z,19.17
2022-12-28T07:03:46.140Z,19.27
2022-12-28T07:06:14.071Z,23.23
2022-12-28T07:08:40.473Z,19.93
2022-12-28T07:11:14.081Z,20.77
2022-12-28T07:13:41.029Z,22.37
2022-12-28T07:16:13.874Z,22.03
2022-12-28T07:18:41.288Z,24.03
2022-12-28T07:21:11.698Z,26.97
2022-12-28T07:23:38.314Z,20.58
2022-12-28T07:26:09.194Z,23.90
2022-12-28T07:31:07.118Z,22.60
2022-12-28T07:33:35.439Z,22.73
2022-12-28T07:36:02.555Z,22.37
2022-12-28T07:38:29.101Z,24.40
2022-12-28T07:41:03.815Z,25.67
2022-12-28T07:43:30.789Z,22.90
2022-12-28T07:46:02.673Z,21.03
2022-12-28T07:48:33.366Z,28.57
2022-12-28T07:51:17.575Z,23.98
2022-12-28T07:53:46.135Z,21.63
2022-12-28T07:56:14.140Z,23.03
2022-12-28T08:01:13.958Z,21.97
2022-12-28T08:03:41.647Z,18.33
2022-12-28T08:06:10.834Z,17.93
2022-12-28T08:08:42.997Z,20.63
2022-12-28T08:11:12.336Z,16.07
2022-12-28T08:13:40.865Z,16.33
2022-12-28T08:16:08.300Z,14.63
2022-12-28T08:18:34.802Z,16.30
2022-12-28T08:21:03.852Z,14.83
2022-12-28T08:23:31.738Z,19.87
2022-12-28T08:26:12.599Z,17.33
2022-12-28T08:28:40.305Z,18.92
2022-12-28T08:31:13.083Z,21.00
2022-12-28T08:33:39.821Z,21.63
2022-12-28T08:36:07.540Z,18.40
2022-12-28T08:38:34.103Z,19.43
2022-12-28T08:41:02.553Z,16.50
2022-12-28T08:43:29.965Z,18.53
2022-12-28T08:46:00.879Z,20.93
2022-12-28T08:50:54.664Z,19.60
2022-12-28T08:53:22.496Z,18.97
2022-12-28T08:55:48.876Z,16.00
2022-12-28T08:58:15.312Z,19.63
2022-12-28T09:00:41.709Z,18.20
2022-12-28T09:03:08.300Z,18.17
2022-12-28T09:05:39.774Z,21.57
2022-12-28T09:08:06.545Z,20.17
2022-12-28T09:10:33.135Z,17.17
2022-12-28T09:12:59.735Z,21.63
2022-12-28T09:15:26.194Z,18.00
2022-12-28T09:17:52.854Z,19.30
2022-12-28T09:20:19.200Z,19.45
2022-12-28T09:22:45.725Z,21.77
2022-12-28T09:25:12.190Z,17.85
2022-12-28T09:27:38.762Z,19.60
2022-12-28T09:30:05.775Z,20.33
2022-12-28T09:32:32.600Z,17.33
2022-12-28T09:34:59.428Z,17.73
2022-12-28T09:37:26.221Z,18.80
2022-12-28T09:39:55.581Z,20.52
2022-12-28T09:42:29.178Z,22.08
2022-12-28T09:45:11.686Z,17.98
2022-12-28T09:47:47.245Z,20.23
2022-12-28T09:50:26.713Z,16.83
2022-12-28T09:53:15.194Z,18.10
2022-12-28T09:55:48.832Z,18.95
2022-12-28T09:58:16.910Z,20.55
2022-12-28T10:00:48.888Z,20.35
2022-12-28T10:03:35.612Z,22.02
2022-12-28T10:06:03.188Z,15.48
2022-12-28T10:08:29.953Z,16.73
2022-12-28T10:11:01.794Z,21.58
2022-12-28T10:13:54.015Z,16.05
2022-12-28T10:16:23.388Z,16.35
2022-12-28T10:18:50.381Z,17.00
2022-12-28T10:21:25.374Z,13.07
2022-12-28T10:24:29.693Z,13.82
2022-12-28T10:26:46.989Z,12.38
2022-12-28T10:29:20.140Z,12.18
2022-12-28T10:31:59.481Z,13.57
2022-12-28T10:34:26.190Z,13.35
2022-12-28T10:36:54.920Z,14.10
2022-12-28T10:39:30.171Z,11.73
2022-12-28T10:41:59.705Z,15.15
2022-12-28T10:44:42.058Z,13.52
2022-12-28T10:47:32.824Z,11.55
2022-12-28T10:52:56.330Z,14.98
2022-12-28T10:55:31.512Z,16.70
2022-12-28T10:58:30.289Z,16.50
2022-12-28T11:01:00.473Z,18.30
2022-12-28T11:03:30.510Z,13.73
2022-12-28T11:06:15.477Z,8.93
2022-12-28T11:08:43.660Z,8.38
2022-12-28T11:11:22.432Z,6.60
2022-12-28T11:13:57.840Z,5.20
2022-12-28T11:16:24.553Z,7.40
2022-12-28T11:18:51.440Z,6.45
2022-12-28T11:21:21.457Z,6.68
2022-12-28T11:23:50.450Z,5.15
2022-12-28T11:26:17.514Z,4.88
2022-12-28T11:28:45.833Z,5.65
2022-12-28T11:31:21.898Z,5.80
2022-12-28T11:34:01.183Z,6.85
2022-12-28T11:36:28.681Z,6.60
2022-12-28T11:38:56.585Z,8.32
2022-12-28T11:41:33.269Z,4.43
2022-12-28T11:44:02.115Z,6.05
2022-12-28T11:46:39.101Z,5.18
2022-12-28T11:49:26.411Z,4.60
2022-12-28T11:52:15.007Z,4.95
2022-12-28T11:55:21.474Z,5.10
2022-12-28T11:57:48.265Z,4.28
2022-12-28T12:00:22.186Z,4.57
2022-12-28T12:02:50.727Z,3.15
2022-12-28T12:05:50.746Z,3.00
2022-12-28T12:08:17.248Z,3.67
2022-12-28T12:10:48.720Z,4.97
2022-12-28T12:13:47.784Z,6.50
2022-12-28T12:16:26.702Z,3.30
2022-12-28T12:18:57.537Z,3.28
2022-12-28T12:23:58.784Z,3.97
2022-12-28T12:26:27.961Z,6.55
2022-12-28T12:29:00.734Z,3.88
2022-12-28T12:31:43.559Z,4.45
2022-12-28T12:34:28.511Z,3.22
2022-12-28T12:37:16.555Z,3.17
2022-12-28T12:39:55.219Z,4.10
2022-12-28T12:42:49.032Z,3.55
2022-12-28T12:45:38.407Z,3.97
2022-12-28T12:48:15.007Z,2.10
2022-12-28T12:50:56.886Z,2.40
2022-12-28T12:53:48.031Z,4.70
2022-12-28T12:56:24.199Z,2.28
2022-12-28T12:59:28.047Z,2.45
2022-12-28T13:02:08.651Z,5.55
2022-12-28T13:04:36.000Z,3.25
2022-12-28T13:07:05.385Z,3.25
2022-12-28T13:09:34.721Z,2.33
2022-12-28T13:12:02.450Z,3.58
2022-12-28T13:14:29.934Z,3.38
2022-12-28T13:16:59.078Z,2.28
2022-12-28T13:19:27.746Z,3.55
2022-12-28T13:21:54.964Z,2.50
2022-12-28T13:24:31.430Z,1.23
2022-12-28T13:26:59.784Z,2.17
2022-12-28T13:29:39.533Z,2.17
2022-12-28T13:32:06.057Z,2.88
2022-12-28T13:34:33.954Z,4.00
2022-12-28T13:37:02.461Z,3.92
2022-12-28T13:39:34.212Z,2.53
2022-12-28T13:42:16.033Z,3.90
2022-12-28T13:44:57.469Z,2.45
2022-12-28T13:47:30.945Z,3.25
2022-12-28T13:50:00.008Z,3.03
2022-12-28T13:52:32.737Z,4.28
2022-12-28T13:55:05.456Z,2.10
2022-12-28T13:57:55.711Z,3.63
2022-12-28T14:00:22.856Z,3.05
2022-12-28T14:02:51.804Z,3.90
2022-12-28T14:05:21.894Z,2.72
2022-12-28T14:07:50.652Z,12.55
2022-12-28T14:10:18.437Z,4.38
2022-12-28T14:12:46.083Z,3.90
2022-12-28T14:15:13.720Z,4.47
2022-12-28T14:17:40.836Z,10.00
2022-12-28T14:20:08.164Z,3.45
2022-12-28T14:22:37.519Z,5.85
2022-12-28T14:25:06.728Z,6.45
2022-12-28T14:27:38.116Z,7.55
2022-12-28T14:30:06.858Z,7.35
2022-12-28T14:35:25.122Z,6.25
2022-12-28T14:37:57.872Z,5.57
2022-12-28T14:40:28.727Z,5.93
2022-12-28T14:45:36.005Z,10.25
2022-12-28T14:48:38.699Z,14.35
2022-12-28T14:51:17.311Z,17.58
2022-12-28T14:53:45.101Z,17.58
2022-12-28T14:59:03.316Z,10.68
2022-12-28T15:01:41.483Z,10.05
2022-12-28T15:04:07.998Z,13.20
2022-12-28T15:06:34.936Z,9.38
2022-12-28T15:09:01.426Z,11.57
2022-12-28T15:11:29.316Z,10.00
2022-12-28T15:13:57.827Z,9.85
2022-12-28T15:16:24.518Z,9.38
2022-12-28T15:18:51.712Z,4.55
2022-12-28T15:21:21.107Z,7.50
2022-12-28T15:23:52.593Z,7.45
2022-12-28T15:26:20.048Z,13.05
2022-12-28T15:29:06.498Z,12.23
2022-12-28T15:31:33.009Z,10.82
2022-12-28T15:33:59.391Z,13.98
2022-12-28T15:36:25.853Z,16.23
2022-12-28T15:38:55.193Z,16.60
2022-12-28T15:41:22.151Z,16.02
2022-12-28T15:43:49.115Z,14.15
2022-12-28T15:46:15.556Z,11.25
2022-12-28T15:48:47.565Z,15.10
2022-12-28T15:51:14.409Z,9.85
2022-12-28T15:53:40.947Z,11.95
2022-12-28T15:56:07.700Z,11.45
2022-12-28T15:58:34.155Z,16.30
2022-12-28T16:01:00.599Z,17.33
2022-12-28T16:03:27.012Z,17.98
2022-12-28T16:05:59.011Z,19.40
2022-12-28T16:08:25.403Z,13.90
2022-12-28T16:10:51.946Z,18.58
2022-12-28T16:13:18.445Z,17.08
2022-12-28T16:15:44.874Z,15.82
2022-12-28T16:18:11.311Z,21.17
2022-12-28T16:20:37.726Z,13.95
2022-12-28T16:23:04.118Z,14.52
2022-12-28T16:25:30.440Z,16.38
2022-12-28T16:27:56.898Z,17.15
2022-12-28T16:30:23.928Z,14.48
2022-12-28T16:32:50.297Z,16.33
2022-12-28T16:35:16.764Z,20.92
2022-12-28T16:37:43.440Z,19.90
2022-12-28T16:40:10.659Z,15.07
2022-12-28T16:42:37.157Z,33.25
2022-12-28T16:45:03.798Z,27.98
2022-12-28T16:47:30.473Z,27.15
2022-12-28T16:49:57.030Z,38.83
2022-12-28T16:52:23.387Z,43.92
2022-12-28T16:54:49.772Z,36.22
2022-12-28T16:57:16.367Z,32.28
2022-12-28T16:59:42.932Z,24.85
2022-12-28T17:02:12.540Z,15.70
2022-12-28T17:04:39.137Z,24.58
2022-12-28T17:07:05.671Z,19.23
2022-12-28T17:09:32.122Z,25.98
2022-12-28T17:11:58.579Z,21.35
2022-12-28T17:14:36.878Z,14.38
2022-12-28T17:17:05.739Z,14.23
2022-12-28T17:19:32.273Z,14.30
2022-12-28T17:21:58.735Z,15.82
2022-12-28T17:24:25.368Z,18.20
2022-12-28T17:26:51.802Z,20.23
2022-12-28T17:29:18.332Z,23.17
2022-12-28T17:31:44.771Z,16.05
2022-12-28T17:34:11.376Z,16.20
2022-12-28T17:36:38.008Z,23.10
2022-12-28T17:39:04.780Z,13.98
2022-12-28T17:41:31.722Z,12.40
2022-12-28T17:44:00.251Z,12.00
2022-12-28T17:46:29.670Z,15.07
2022-12-28T17:48:57.892Z,15.55
2022-12-28T17:51:24.945Z,13.23
2022-12-28T17:53:53.775Z,18.75
2022-12-28T17:56:20.313Z,19.95
2022-12-28T17:58:47.050Z,12.23
2022-12-28T18:01:13.924Z,14.35
2022-12-28T18:03:40.574Z,15.55
2022-12-28T18:06:07.473Z,14.27
2022-12-28T18:08:33.940Z,13.07
2022-12-28T18:11:00.602Z,14.10
2022-12-28T18:13:26.978Z,13.95
2022-12-28T18:15:53.449Z,15.07
2022-12-28T18:18:19.807Z,12.40
2022-12-28T18:21:02.244Z,11.48
2022-12-28T18:23:29.916Z,13.07
2022-12-28T18:26:04.286Z,14.30
2022-12-28T18:28:32.141Z,15.23
2022-12-28T18:31:02.049Z,12.30
2022-12-28T18:33:29.636Z,11.98
2022-12-28T18:35:55.932Z,19.30
2022-12-28T18:38:22.755Z,13.60
2022-12-28T18:40:53.704Z,11.90
2022-12-28T18:45:53.287Z,15.27
2022-12-28T18:48:19.850Z,15.80
2022-12-28T18:51:00.105Z,10.55
2022-12-28T18:53:28.642Z,15.57
2022-12-28T18:56:03.414Z,19.58
2022-12-28T18:58:32.133Z,16.52
2022-12-28T19:01:05.868Z,14.80
2022-12-28T19:03:32.503Z,14.57
2022-12-28T19:06:03.225Z,13.27
2022-12-28T19:08:34.287Z,11.90
2022-12-28T19:13:32.408Z,15.38
2022-12-28T19:15:58.788Z,14.82
2022-12-28T19:18:25.373Z,14.60
2022-12-28T19:20:59.008Z,13.93
2022-12-28T19:23:25.552Z,14.45
2022-12-28T19:25:52.039Z,15.57
2022-12-28T19:28:18.549Z,14.93
2022-12-28T19:30:45.434Z,15.10
2022-12-28T19:33:11.955Z,17.98
2022-12-28T19:35:38.364Z,17.42
2022-12-28T19:38:05.090Z,15.82
2022-12-28T19:40:31.640Z,12.60
2022-12-28T19:42:58.065Z,14.23
2022-12-28T19:45:24.711Z,17.92
2022-12-28T19:47:51.048Z,19.73
2022-12-28T19:50:17.484Z,15.85
2022-12-28T19:52:44.053Z,14.70
2022-12-28T19:55:10.475Z,15.88
2022-12-28T19:57:37.013Z,15.50
2022-12-28T20:00:04.219Z,15.40
2022-12-28T20:02:30.918Z,15.90
2022-12-28T20:04:57.412Z,17.58
2022-12-28T20:07:23.722Z,16.88
2022-12-28T20:09:50.624Z,16.95
2022-12-28T20:12:17.558Z,16.08
2022-12-28T20:14:44.005Z,16.98
2022-12-28T20:17:10.510Z,14.73
2022-12-28T20:19:36.953Z,17.92
2022-12-28T20:22:03.465Z,17.58
2022-12-28T20:24:29.862Z,20.58
2022-12-28T20:27:01.324Z,14.10
2022-12-28T20:29:28.332Z,16.63
2022-12-28T20:31:54.733Z,17.92
2022-12-28T20:34:21.233Z,19.20
2022-12-28T20:36:47.664Z,18.60
2022-12-28T20:39:14.080Z,14.70
2022-12-28T20:41:40.793Z,15.52
2022-12-28T20:44:16.605Z,13.48
2022-12-28T20:46:44.051Z,13.87
2022-12-28T20:49:11.253Z,16.25
2022-12-28T20:51:37.866Z,14.63
2022-12-28T20:54:04.728Z,16.58
2022-12-28T20:56:31.227Z,15.52
2022-12-28T20:58:58.473Z,13.35
2022-12-28T21:01:24.902Z,16.88
2022-12-28T21:03:51.671Z,16.92
2022-12-28T21:06:18.139Z,14.75
2022-12-28T21:08:44.531Z,17.97
2022-12-28T21:11:11.223Z,14.90
2022-12-28T21:13:43.776Z,11.85
2022-12-28T21:16:12.159Z,13.63
2022-12-28T21:18:38.820Z,14.70
2022-12-28T21:21:05.762Z,19.10
2022-12-28T21:23:32.860Z,16.55
2022-12-28T21:26:05.682Z,17.00
2022-12-28T21:28:33.236Z,18.33
2022-12-28T21:30:59.770Z,18.47
2022-12-28T21:33:27.146Z,20.03
2022-12-28T21:36:00.776Z,15.63
2022-12-28T21:38:28.251Z,17.53
2022-12-28T21:41:00.506Z,13.48
2022-12-28T21:43:27.683Z,15.00
2022-12-28T21:46:06.744Z,16.10
2022-12-28T21:48:35.423Z,16.57
2022-12-28T21:51:13.253Z,16.00
2022-12-28T21:53:39.870Z,16.27
2022-12-28T21:56:06.435Z,17.02
2022-12-28T21:58:32.755Z,16.00
2022-12-28T22:00:59.284Z,13.10
2022-12-28T22:03:26.057Z,14.73
2022-12-28T22:05:52.505Z,12.77
2022-12-28T22:08:19.020Z,14.77
2022-12-28T22:10:45.534Z,12.80
2022-12-28T22:13:11.857Z,13.17
2022-12-28T22:15:38.520Z,13.57
2022-12-28T22:18:07.379Z,16.95
2022-12-28T22:20:36.402Z,12.95
2022-12-28T22:23:04.107Z,11.93
2022-12-28T22:25:31.394Z,12.53
2022-12-28T22:27:58.242Z,10.57
2022-12-28T22:30:24.855Z,11.68
2022-12-28T22:32:51.481Z,12.48
2022-12-28T22:35:18.232Z,12.45
2022-12-28T22:37:44.693Z,14.38
2022-12-28T22:40:11.776Z,14.00
2022-12-28T22:42:42.601Z,13.25
2022-12-28T22:45:14.088Z,16.80
2022-12-28T22:47:40.941Z,13.88
2022-12-28T22:50:10.700Z,14.35
2022-12-28T22:52:37.284Z,16.23
2022-12-28T22:55:04.368Z,15.07
2022-12-28T22:57:31.072Z,17.00
2022-12-28T22:59:57.667Z,15.35
2022-12-28T23:02:24.470Z,19.95
2022-12-28T23:04:51.619Z,19.88
2022-12-28T23:07:18.477Z,17.90
2022-12-28T23:09:45.011Z,20.77
2022-12-28T23:12:11.350Z,20.02
2022-12-28T23:14:42.724Z,20.05
2022-12-28T23:17:12.456Z,16.48
2022-12-28T23:19:39.345Z,14.48
2022-12-28T23:22:07.079Z,14.73
2022-12-28T23:24:33.526Z,15.10
2022-12-28T23:27:00.220Z,16.38
2022-12-28T23:29:30.479Z,17.70
2022-12-28T23:31:57.581Z,15.10
2022-12-28T23:34:24.173Z,17.67
2022-12-28T23:36:50.779Z,17.33
2022-12-28T23:39:17.314Z,16.33
2022-12-28T23:41:44.006Z,19.70
2022-12-28T23:44:10.498Z,19.70
2022-12-28T23:46:36.993Z,21.50
2022-12-28T23:49:03.676Z,22.35
2022-12-28T23:51:30.181Z,16.38
2022-12-28T23:53:56.684Z,17.13
2022-12-28T23:56:23.018Z,18.52
2022-12-28T23:58:50.092Z,18.23
